Time;durP1;ratioP1;P1;durP2;ratioP2;P2;SDS_P1;SDS_P2;PMS_P1;PMS_P2;Temp;Humidity;BMP_temperature;BMP_pressure;BME280_temperature;BME280_humidity;BME280_pressure;Samples;Min_cycle;Max_cycle;Signal;HPM_P1;HPM_P2
2022/11/25 00:01:43;;;;;;;6.43;3.63;;;8.20;99.90;;;;;;10069322;28;20389;-69
2022/11/25 00:06:35;;;;;;;6.82;3.13;;;8.20;99.90;;;;;;10091260;28;20069;-68
2022/11/25 00:11:26;;;;;;;5.95;2.83;;;8.20;99.90;;;;;;10088889;28;20171;-68
2022/11/25 00:16:19;;;;;;;5.68;2.78;;;8.20;99.90;;;;;;10065513;28;20147;-69
2022/11/25 00:21:12;;;;;;;8.18;3.53;;;8.20;99.90;;;;;;10087303;28;20040;-70
2022/11/25 00:26:07;;;;;;;4.32;2.45;;;8.20;99.90;;;;;;10065295;28;20063;-66
2022/11/25 00:31:19;;;;;;;8.10;2.95;;;8.10;99.90;;;;;;10087848;28;20067;-67
2022/11/25 00:36:20;;;;;;;8.02;2.78;;;8.10;99.90;;;;;;10080857;28;20116;-63
2022/11/25 00:46:20;;;;;;;6.00;2.38;;;8.10;99.90;;;;;;10085795;28;20553;-66
2022/11/25 00:51:10;;;;;;;4.78;2.42;;;8.00;99.90;;;;;;10085227;28;20032;-68
2022/11/25 00:56:14;;;;;;;8.07;3.20;;;8.00;99.90;;;;;;10091012;28;20032;-66
2022/11/25 01:01:05;;;;;;;4.95;2.95;;;8.10;99.90;;;;;;10091910;28;20028;-61
2022/11/25 01:06:00;;;;;;;5.75;2.42;;;8.00;99.90;;;;;;10084039;28;20086;-70
2022/11/25 01:10:58;;;;;;;6.00;3.15;;;8.00;99.90;;;;;;10088403;28;20017;-68
2022/11/25 01:15:49;;;;;;;5.28;2.22;;;8.00;99.90;;;;;;10092863;28;20025;-66
2022/11/25 01:20:39;;;;;;;5.75;3.35;;;8.00;99.90;;;;;;10093208;28;20509;-70
2022/11/25 01:25:30;;;;;;;5.82;2.38;;;8.00;99.90;;;;;;10106570;28;20068;-68
2022/11/25 01:30:20;;;;;;;3.38;2.42;;;8.10;99.90;;;;;;10092176;28;20025;-70
2022/11/25 01:35:11;;;;;;;7.55;2.60;;;8.20;99.90;;;;;;10078389;28;20033;-68
2022/11/25 01:40:02;;;;;;;6.15;2.05;;;8.20;99.90;;;;;;10094443;28;20479;-69
2022/11/25 01:45:30;;;;;;;4.03;2.47;;;8.20;99.90;;;;;;10099513;28;20044;-65
2022/11/25 01:50:23;;;;;;;3.22;2.03;;;8.20;99.90;;;;;;10092686;28;20279;-70
2022/11/25 01:55:19;;;;;;;7.13;2.30;;;8.20;99.90;;;;;;10094114;28;20419;-68
2022/11/25 02:00:10;;;;;;;4.80;1.60;;;8.30;99.90;;;;;;10090403;28;20056;-70
2022/11/25 02:05:08;;;;;;;4.05;1.67;;;8.30;99.90;;;;;;10091854;28;20045;-67
2022/11/25 02:10:03;;;;;;;3.22;1.77;;;8.20;99.90;;;;;;10078504;28;20120;-69
2022/11/25 02:14:55;;;;;;;5.50;2.17;;;8.30;99.90;;;;;;10095617;28;20502;-68
2022/11/25 02:20:00;;;;;;;5.72;2.00;;;8.40;99.90;;;;;;10090020;28;20475;-68
2022/11/25 02:24:56;;;;;;;3.03;1.63;;;8.40;99.90;;;;;;10093553;28;20048;-69
2022/11/25 02:29:47;;;;;;;;;;;8.30;99.90;;;;;;10090248;28;20112;-70
2022/11/25 02:34:48;;;;;;;2.90;1.15;;;8.30;99.90;;;;;;10094719;28;19912;-68
2022/11/25 02:39:39;;;;;;;4.43;1.63;;;8.30;99.90;;;;;;10072995;28;20033;-69
2022/11/25 02:44:30;;;;;;;4.47;1.55;;;8.20;99.90;;;;;;10085913;28;20090;-68
2022/11/25 02:49:21;;;;;;;2.75;1.77;;;8.20;99.90;;;;;;10090578;28;20078;-69
2022/11/25 02:54:13;;;;;;;2.50;1.30;;;8.20;99.90;;;;;;10096202;28;20458;-69
2022/11/25 02:59:04;;;;;;;2.80;1.63;;;8.20;99.90;;;;;;10095068;28;20068;-70
2022/11/25 03:03:54;;;;;;;12.93;1.88;;;8.20;99.90;;;;;;10094526;28;20175;-68
2022/11/25 03:08:45;;;;;;;1.75;1.45;;;8.20;99.90;;;;;;10094064;28;20112;-69
2022/11/25 03:13:36;;;;;;;3.63;1.55;;;8.30;99.90;;;;;;10094344;28;20025;-68
2022/11/25 03:18:26;;;;;;;5.65;1.73;;;8.20;99.90;;;;;;10087678;28;20112;-68
2022/11/25 03:23:17;;;;;;;6.40;2.08;;;8.20;99.90;;;;;;10089951;28;20048;-69
2022/11/25 03:28:08;;;;;;;4.13;1.60;;;8.10;99.90;;;;;;10077396;28;20122;-63
2022/11/25 03:32:58;;;;;;;2.95;1.90;;;8.00;99.90;;;;;;10078492;28;20044;-68
2022/11/25 03:37:49;;;;;;;4.32;2.03;;;8.00;99.90;;;;;;10068970;28;20052;-69
2022/11/25 03:42:39;;;;;;;3.67;2.58;;;7.90;99.90;;;;;;10087081;28;20364;-70
2022/11/25 03:47:30;;;;;;;9.98;2.33;;;7.90;99.90;;;;;;10085564;28;20483;-70
2022/11/25 03:52:21;;;;;;;4.47;2.88;;;7.90;99.90;;;;;;10088394;28;20022;-70
2022/11/25 03:57:12;;;;;;;3.03;1.75;;;8.00;99.90;;;;;;10074962;28;20025;-68
2022/11/25 04:02:02;;;;;;;6.53;2.00;;;8.10;99.90;;;;;;10094539;28;20023;-70
2022/11/25 04:06:53;;;;;;;3.55;2.17;;;8.10;99.90;;;;;;10089643;28;20055;-68
2022/11/25 04:16:53;;;;;;;6.07;1.80;;;8.20;99.90;;;;;;10083497;28;20075;-67
2022/11/25 04:21:43;;;;;;;4.47;2.30;;;8.10;99.90;;;;;;10093423;28;20059;-65
2022/11/25 04:26:34;;;;;;;4.18;2.00;;;8.20;99.90;;;;;;10065579;28;20094;-68
2022/11/25 04:31:24;;;;;;;5.78;1.80;;;8.20;99.90;;;;;;10070975;28;20044;-66
2022/11/25 04:36:15;;;;;;;2.58;1.92;;;8.10;99.90;;;;;;10091373;28;20201;-68
2022/11/25 04:41:06;;;;;;;5.60;3.20;;;8.30;99.90;;;;;;10084509;28;20028;-66
2022/11/25 04:45:57;;;;;;;3.05;1.95;;;8.30;99.90;;;;;;10085220;28;20033;-69
2022/11/25 04:50:48;;;;;;;3.97;2.10;;;8.40;99.90;;;;;;10091079;28;20029;-67
2022/11/25 04:55:39;;;;;;;2.15;1.67;;;8.40;99.90;;;;;;10088173;28;20025;-70
2022/11/25 05:00:30;;;;;;;4.47;1.85;;;8.40;99.90;;;;;;10089871;28;20059;-70
2022/11/25 05:05:21;;;;;;;4.15;2.28;;;8.30;99.90;;;;;;10089503;28;20114;-69
2022/11/25 05:10:11;;;;;;;5.32;1.85;;;8.20;99.90;;;;;;10095351;28;20033;-70
2022/11/25 05:15:04;;;;;;;3.13;1.98;;;8.30;99.90;;;;;;10089353;28;20028;-70
2022/11/25 05:19:55;;;;;;;5.78;2.45;;;8.30;99.90;;;;;;10068950;28;20604;-70
2022/11/25 05:24:49;;;;;;;3.65;2.22;;;8.20;99.90;;;;;;10078291;28;20052;-68
2022/11/25 05:29:39;;;;;;;4.10;2.65;;;8.20;99.90;;;;;;10099358;28;20036;-67
2022/11/25 05:34:30;;;;;;;4.57;2.88;;;8.20;99.90;;;;;;10097456;28;20074;-65
2022/11/25 05:39:21;;;;;;;4.13;2.22;;;8.30;99.90;;;;;;10088840;28;20086;-65
2022/11/25 05:44:12;;;;;;;4.88;2.60;;;8.30;99.90;;;;;;10090071;28;20545;-69
2022/11/25 05:49:02;;;;;;;3.47;1.98;;;8.30;99.90;;;;;;10086829;28;20025;-69
2022/11/25 05:53:55;;;;;;;5.63;2.35;;;8.30;99.90;;;;;;10085822;28;20036;-68
2022/11/25 05:58:46;;;;;;;4.13;2.30;;;8.40;99.90;;;;;;10090247;28;20139;-65
2022/11/25 06:03:37;;;;;;;4.47;1.92;;;8.40;99.90;;;;;;10093067;28;20116;-67
2022/11/25 06:08:27;;;;;;;7.03;2.00;;;8.50;99.90;;;;;;10097442;28;20052;-68
2022/11/25 06:13:19;;;;;;;4.55;2.50;;;8.60;99.90;;;;;;10090564;28;20033;-66
2022/11/25 06:18:11;;;;;;;3.88;2.67;;;8.60;99.90;;;;;;10097205;28;20506;-68
2022/11/25 06:23:02;;;;;;;2.65;1.92;;;8.60;99.90;;;;;;10091306;28;20143;-71
2022/11/25 06:27:53;;;;;;;3.97;1.95;;;8.60;99.90;;;;;;10091142;28;20039;-63
2022/11/25 06:32:44;;;;;;;3.60;2.30;;;8.70;99.90;;;;;;10089331;28;20029;-65
2022/11/25 06:37:35;;;;;;;7.35;2.88;;;8.70;99.90;;;;;;10087263;28;20029;-67
2022/11/25 06:42:26;;;;;;;7.85;2.45;;;8.80;99.90;;;;;;10083964;28;20403;-67
2022/11/25 06:47:17;;;;;;;6.93;2.63;;;8.80;99.90;;;;;;10070644;28;20041;-66
2022/11/25 06:52:07;;;;;;;6.60;2.35;;;8.80;99.90;;;;;;10087204;28;20029;-67
2022/11/25 06:56:58;;;;;;;3.53;2.03;;;8.80;99.90;;;;;;10085188;28;20101;-65
2022/11/25 07:01:49;;;;;;;3.00;1.73;;;8.80;99.90;;;;;;10089693;28;20547;-69
2022/11/25 07:06:39;;;;;;;7.47;3.67;;;8.80;99.90;;;;;;10074763;28;20043;-70
2022/11/25 07:11:39;;;;;;;6.70;2.42;;;8.80;99.90;;;;;;10089231;28;20037;-68
2022/11/25 07:16:30;;;;;;;3.67;2.03;;;8.80;99.90;;;;;;10083450;28;20375;-69
2022/11/25 07:21:23;;;;;;;5.25;2.25;;;8.80;99.90;;;;;;10112632;28;20188;-71
2022/11/25 07:26:22;;;;;;;6.28;2.33;;;8.80;99.90;;;;;;10093294;28;20041;-69
2022/11/25 07:31:20;;;;;;;5.60;2.55;;;8.70;99.90;;;;;;10082354;28;20028;-69
2022/11/25 07:36:12;;;;;;;5.35;2.72;;;8.70;99.90;;;;;;10090158;22;20053;-62
2022/11/25 07:41:18;;;;;;;2.42;2.03;;;8.80;99.90;;;;;;10077613;28;20525;-61
2022/11/25 07:46:24;;;;;;;7.10;2.30;;;8.80;99.90;;;;;;10092529;28;20043;-62
2022/11/25 07:51:14;;;;;;;3.28;1.85;;;8.80;99.90;;;;;;10092058;28;20379;-64
2022/11/25 07:56:05;;;;;;;3.28;2.00;;;8.90;99.90;;;;;;10095029;28;20036;-62
2022/11/25 08:00:56;;;;;;;5.38;2.45;;;8.80;99.90;;;;;;10091913;28;20029;-63
2022/11/25 08:05:47;;;;;;;5.47;1.88;;;8.90;99.90;;;;;;10091594;28;20075;-66
2022/11/25 08:10:41;;;;;;;3.20;2.20;;;8.90;99.90;;;;;;10091684;28;20226;-63
2022/11/25 08:15:32;;;;;;;9.10;2.15;;;9.00;99.90;;;;;;10093390;28;20407;-62
2022/11/25 08:20:22;;;;;;;5.40;2.00;;;9.00;99.90;;;;;;10085556;28;20028;-64
2022/11/25 08:25:13;;;;;;;7.30;2.22;;;9.10;99.90;;;;;;10088299;28;20116;-65
2022/11/25 08:30:05;;;;;;;4.38;1.58;;;9.20;99.90;;;;;;10086477;28;20267;-64
2022/11/25 08:34:56;;;;;;;4.55;2.05;;;9.30;99.90;;;;;;10086330;28;20076;-62
2022/11/25 08:39:48;;;;;;;6.55;2.30;;;9.30;99.90;;;;;;10069459;28;20076;-63
2022/11/25 08:44:39;;;;;;;5.25;2.13;;;9.20;99.90;;;;;;10066772;28;20164;-64
2022/11/25 08:49:30;;;;;;;3.22;2.00;;;9.20;99.90;;;;;;10086649;28;20213;-62
2022/11/25 08:54:21;;;;;;;8.02;2.65;;;9.10;99.90;;;;;;10087990;28;20586;-62
2022/11/25 08:59:12;;;;;;;3.28;2.05;;;9.00;99.90;;;;;;10087895;28;20020;-62
2022/11/25 09:04:02;;;;;;;3.45;1.77;;;9.00;99.90;;;;;;10089025;28;20056;-61
2022/11/25 09:08:55;;;;;;;4.05;2.03;;;9.10;99.90;;;;;;10088753;28;20525;-62
2022/11/25 09:13:46;;;;;;;3.30;2.40;;;9.00;99.90;;;;;;10085268;28;20029;-61
2022/11/25 09:18:37;;;;;;;11.23;2.38;;;9.30;99.90;;;;;;10071901;28;20036;-62
2022/11/25 09:23:27;;;;;;;4.63;3.10;;;9.60;99.90;;;;;;10069554;28;20113;-60
2022/11/25 09:28:19;;;;;;;7.75;2.30;;;9.70;99.90;;;;;;10084808;28;20029;-63
2022/11/25 09:33:10;;;;;;;4.85;2.28;;;9.60;99.90;;;;;;10094006;28;20052;-62
2022/11/25 09:38:01;;;;;;;5.13;2.25;;;9.60;99.90;;;;;;10097527;28;20017;-62
2022/11/25 09:48:47;;;;;;;5.18;2.30;;;9.60;99.90;;;;;;10020220;28;20061;-65
2022/11/25 09:53:43;;;;;;;3.13;1.98;;;9.60;99.90;;;;;;10037350;28;20021;-68
2022/11/25 09:58:37;;;;;;;3.08;2.13;;;9.60;99.90;;;;;;10039420;28;20112;-66
2022/11/25 10:03:41;;;;;;;3.92;2.33;;;9.60;99.90;;;;;;10041481;28;20061;-69
2022/11/25 10:08:46;;;;;;;5.40;3.75;;;9.60;99.90;;;;;;10038351;28;20515;-67
2022/11/25 10:14:11;;;;;;;4.68;2.53;;;9.70;99.90;;;;;;10038316;28;20438;-66
2022/11/25 10:19:22;;;;;;;5.20;3.22;;;9.80;99.90;;;;;;10038875;28;20096;-71
2022/11/25 10:24:20;;;;;;;4.45;2.40;;;9.80;99.90;;;;;;10040529;28;20388;-68
2022/11/25 10:29:13;;;;;;;4.55;2.53;;;9.80;99.90;;;;;;10033887;28;20068;-70
2022/11/25 10:34:33;;;;;;;5.30;3.42;;;9.90;99.90;;;;;;10038584;28;20037;-68
2022/11/25 10:39:34;;;;;;;4.47;2.50;;;10.00;99.90;;;;;;10042743;28;20064;-68
2022/11/25 10:44:44;;;;;;;4.15;2.60;;;10.10;99.90;;;;;;10040668;28;20089;-66
2022/11/25 10:50:02;;;;;;;3.30;1.95;;;10.30;99.90;;;;;;10041391;28;20610;-67
2022/11/25 10:55:09;;;;;;;6.75;3.42;;;10.30;99.90;;;;;;10035456;28;20025;-71
2022/11/25 11:00:02;;;;;;;5.13;2.33;;;10.30;99.90;;;;;;10041699;28;20049;-68
2022/11/25 11:04:59;;;;;;;3.42;2.17;;;10.30;99.90;;;;;;10035796;28;20587;-68
2022/11/25 11:09:49;;;;;;;4.22;2.38;;;10.30;99.90;;;;;;10037727;28;20022;-70
2022/11/25 11:14:41;;;;;;;5.22;2.17;;;10.30;99.90;;;;;;10035076;28;20022;-69
2022/11/25 11:19:31;;;;;;;3.70;2.10;;;10.30;99.90;;;;;;10037847;28;20021;-65
2022/11/25 11:24:36;;;;;;;8.05;2.95;;;10.30;99.90;;;;;;10037001;28;20348;-64
2022/11/25 11:29:27;;;;;;;9.35;4.00;;;10.60;99.90;;;;;;10039251;28;20026;-68
2022/11/25 11:34:17;;;;;;;7.22;4.50;;;10.70;99.90;;;;;;10038280;28;20144;-66
2022/11/25 11:39:30;;;;;;;9.80;4.22;;;10.80;99.90;;;;;;10041298;28;20022;-68
2022/11/25 11:44:51;;;;;;;6.55;2.90;;;11.00;99.90;;;;;;10040830;28;20122;-66
2022/11/25 11:50:05;;;;;;;9.52;3.50;;;11.20;99.90;;;;;;10036396;28;20508;-65
2022/11/25 11:55:01;;;;;;;6.15;3.15;;;11.30;99.90;;;;;;10028327;28;20038;-68
2022/11/25 11:59:54;;;;;;;6.30;3.42;;;11.20;99.90;;;;;;10036428;28;20037;-68
2022/11/25 12:04:55;;;;;;;7.13;3.60;;;11.10;99.90;;;;;;10028432;28;20133;-67
2022/11/25 12:10:01;;;;;;;7.65;3.78;;;11.30;99.90;;;;;;10030938;28;20456;-65
2022/11/25 12:15:11;;;;;;;9.77;3.92;;;11.30;99.90;;;;;;10030056;28;20554;-66
2022/11/25 12:20:46;;;;;;;6.28;3.45;;;11.60;99.90;;;;;;10029890;28;20021;-66
2022/11/25 12:25:40;;;;;;;5.57;2.50;;;11.50;99.90;;;;;;10036919;28;20053;-72
2022/11/25 12:31:02;;;;;;;5.88;2.67;;;11.50;99.90;;;;;;10033973;28;20041;-69
2022/11/25 12:36:06;;;;;;;4.95;2.83;;;11.80;99.90;;;;;;10022786;28;20167;-66
2022/11/25 12:41:12;;;;;;;10.93;3.30;;;12.20;99.90;;;;;;10036171;28;20022;-70
2022/11/25 12:46:18;;;;;;;;;;;12.20;99.90;;;;;;10035691;28;20515;-68
2022/11/25 12:51:27;;;;;;;8.60;3.58;;;12.20;99.90;;;;;;10035009;28;19935;-68
2022/11/25 12:56:25;;;;;;;4.55;2.53;;;12.20;99.90;;;;;;10035609;28;20029;-66
2022/11/25 13:01:45;;;;;;;4.47;2.25;;;12.20;99.90;;;;;;10032387;28;20403;-72
2022/11/25 13:06:54;;;;;;;5.03;3.10;;;12.10;99.90;;;;;;10035693;28;20037;-70
2022/11/25 13:11:51;;;;;;;6.57;3.15;;;12.40;99.90;;;;;;10038758;28;20018;-67
2022/11/25 13:16:45;;;;;;;3.75;2.00;;;12.70;99.90;;;;;;10039737;28;20104;-64
2022/11/25 13:21:36;;;;;;;3.67;2.22;;;12.60;99.90;;;;;;10046498;28;20510;-68
2022/11/25 13:26:34;;;;;;;4.18;2.38;;;12.40;99.90;;;;;;10043316;28;20120;-68
2022/11/25 13:31:34;;;;;;;3.35;1.52;;;12.40;99.90;;;;;;10036939;28;20025;-69
2022/11/25 13:36:43;;;;;;;3.20;2.10;;;12.20;99.90;;;;;;10042485;28;20216;-66
2022/11/25 13:41:42;;;;;;;4.05;2.47;;;11.90;99.90;;;;;;10039837;28;20031;-63
2022/11/25 13:46:46;;;;;;;5.22;2.40;;;11.70;99.90;;;;;;10037011;28;20077;-68
2022/11/25 13:51:47;;;;;;;4.32;1.42;;;11.70;99.90;;;;;;10037243;28;20041;-69
2022/11/25 13:56:38;;;;;;;4.32;1.83;;;11.70;99.90;;;;;;10033277;28;20112;-69
2022/11/25 14:01:28;;;;;;;4.85;1.92;;;11.80;99.90;;;;;;10037024;28;20112;-67
2022/11/25 14:06:40;;;;;;;6.43;1.85;;;11.90;99.90;;;;;;10036255;28;20373;-70
2022/11/25 14:11:40;;;;;;;5.18;1.73;;;11.90;99.90;;;;;;10033303;28;20033;-67
2022/11/25 14:16:49;;;;;;;4.20;1.83;;;11.90;99.90;;;;;;10035028;28;20041;-69
2022/11/25 14:22:05;;;;;;;2.60;1.92;;;12.00;99.90;;;;;;10048172;28;20188;-70
2022/11/25 14:26:58;;;;;;;4.45;2.17;;;12.00;99.90;;;;;;10040020;28;20562;-68
2022/11/25 14:31:56;;;;;;;7.60;1.83;;;12.00;99.90;;;;;;10043010;28;20030;-68
2022/11/25 14:36:56;;;;;;;6.35;1.90;;;11.90;99.90;;;;;;10027124;28;20064;-69
2022/11/25 14:41:54;;;;;;;4.65;1.85;;;11.90;99.90;;;;;;10034846;28;20116;-61
2022/11/25 14:46:57;;;;;;;2.95;1.75;;;11.80;99.90;;;;;;10031112;28;20105;-63
2022/11/25 14:51:50;;;;;;;8.32;4.28;;;11.60;99.90;;;;;;10044177;28;20020;-66
2022/11/25 14:56:41;;;;;;;7.25;2.35;;;11.50;99.90;;;;;;10041399;28;20515;-71
2022/11/25 15:01:34;;;;;;;4.13;1.75;;;11.60;99.90;;;;;;10035979;28;20026;-75
2022/11/25 15:06:31;;;;;;;6.38;2.13;;;11.60;99.90;;;;;;10026795;28;20042;-67
2022/11/25 15:11:26;;;;;;;4.70;2.30;;;11.60;99.90;;;;;;10026564;28;20389;-65
2022/11/25 15:16:30;;;;;;;5.78;2.53;;;11.40;99.90;;;;;;10021626;28;20108;-68
2022/11/25 15:21:36;;;;;;;3.80;1.92;;;11.40;99.90;;;;;;10028591;28;20026;-73
2022/11/25 15:26:27;;;;;;;;;;;11.30;99.90;;;;;;10024472;28;20058;-75
2022/11/25 15:31:20;;;;;;;4.80;2.40;;;11.20;99.90;;;;;;10039563;28;19913;-68
2022/11/25 15:36:10;;;;;;;4.15;2.28;;;11.20;99.90;;;;;;10042442;28;20670;-68
2022/11/25 15:41:02;;;;;;;8.30;3.58;;;11.10;99.90;;;;;;10038090;28;20370;-76
2022/11/25 15:46:01;;;;;;;4.75;2.95;;;11.10;99.90;;;;;;10029352;28;20049;-72
2022/11/25 15:50:55;;;;;;;4.60;2.28;;;11.10;99.90;;;;;;10038728;28;20022;-74
2022/11/25 15:55:46;;;;;;;13.10;3.15;;;11.10;99.90;;;;;;10033693;28;20025;-74
2022/11/25 16:00:37;;;;;;;8.30;3.80;;;11.20;99.90;;;;;;10039611;28;20092;-74
2022/11/25 16:05:34;;;;;;;8.20;4.20;;;11.20;99.90;;;;;;10037444;28;20511;-76
2022/11/25 16:10:33;;;;;;;6.10;2.80;;;11.10;99.90;;;;;;10035469;28;20068;-72
2022/11/25 16:15:59;;;;;;;4.60;2.72;;;11.00;99.90;;;;;;10032721;28;20026;-75
2022/11/25 16:21:00;;;;;;;7.70;3.13;;;11.10;99.90;;;;;;10032471;28;20053;-68
2022/11/25 16:25:59;;;;;;;6.88;3.25;;;11.00;99.90;;;;;;10037856;28;20591;-73
2022/11/25 16:30:51;;;;;;;4.60;2.42;;;11.00;99.90;;;;;;10032727;28;20537;-75
2022/11/25 16:35:42;;;;;;;10.00;2.85;;;11.00;99.90;;;;;;10023599;28;20026;-74
2022/11/25 16:40:36;;;;;;;7.82;3.17;;;10.90;99.90;;;;;;10039767;28;20087;-74
2022/11/25 16:45:27;;;;;;;8.32;3.00;;;10.90;99.90;;;;;;10050937;28;20049;-70
2022/11/25 16:50:20;;;;;;;6.10;3.47;;;10.90;99.90;;;;;;10048831;28;20040;-70
2022/11/25 16:55:10;;;;;;;6.57;3.28;;;10.90;99.90;;;;;;10058065;28;20023;-74
2022/11/25 17:00:07;;;;;;;4.72;2.85;;;10.80;99.90;;;;;;10034733;28;20391;-72
2022/11/25 17:05:14;;;;;;;6.57;3.72;;;10.80;99.90;;;;;;10012711;28;20038;-71
2022/11/25 17:10:05;;;;;;;7.72;3.50;;;10.70;99.90;;;;;;10008362;28;20048;-68
2022/11/25 17:14:58;;;;;;;9.43;4.32;;;10.70;99.90;;;;;;10006073;28;20065;-68
2022/11/25 17:19:49;;;;;;;13.95;4.10;;;10.70;99.90;;;;;;10020599;28;20021;-66
2022/11/25 17:24:40;;;;;;;6.63;3.78;;;10.70;99.90;;;;;;10033357;28;20033;-66
2022/11/25 17:29:39;;;;;;;9.98;4.20;;;10.60;99.90;;;;;;10031582;28;20403;-67
2022/11/25 17:34:30;;;;;;;13.30;5.88;;;10.60;99.90;;;;;;10033135;28;20090;-70
2022/11/25 17:39:21;;;;;;;9.88;4.07;;;10.60;99.90;;;;;;10029015;28;20030;-69
2022/11/25 17:44:28;;;;;;;10.07;4.13;;;10.50;99.90;;;;;;10037661;28;20051;-70
2022/11/25 17:49:19;;;;;;;11.05;4.80;;;10.50;99.90;;;;;;10036363;28;20051;-68
2022/11/25 17:54:10;;;;;;;10.18;4.45;;;10.40;99.90;;;;;;10040880;28;20017;-65
2022/11/25 17:59:03;;;;;;;11.57;5.60;;;10.40;99.90;;;;;;10042922;28;20025;-69
2022/11/25 18:03:55;;;;;;;9.07;4.90;;;10.40;99.90;;;;;;10040614;28;20104;-69
2022/11/25 18:08:46;;;;;;;9.82;4.28;;;10.40;99.90;;;;;;10035727;28;20467;-68
2022/11/25 18:13:39;;;;;;;9.52;4.70;;;10.40;99.90;;;;;;10035483;28;20105;-68
2022/11/25 18:18:29;;;;;;;15.38;5.05;;;10.40;99.90;;;;;;10038796;28;20044;-69
2022/11/25 18:23:20;;;;;;;8.15;4.13;;;10.40;99.90;;;;;;10043031;28;20025;-67
2022/11/25 18:28:18;;;;;;;8.52;4.80;;;10.30;99.90;;;;;;10036583;28;21530;-69
2022/11/25 18:33:14;;;;;;;10.25;4.30;;;10.20;99.90;;;;;;10041233;28;20072;-66
2022/11/25 18:38:06;;;;;;;8.27;3.92;;;10.20;99.90;;;;;;10042646;28;20060;-65
2022/11/25 18:43:00;;;;;;;8.05;4.72;;;10.20;99.90;;;;;;10045551;28;20042;-63
2022/11/25 18:47:50;;;;;;;10.77;4.72;;;10.30;99.90;;;;;;10041986;28;20046;-64
2022/11/25 18:52:41;;;;;;;7.40;4.47;;;10.40;99.90;;;;;;10043982;28;20130;-67
2022/11/25 18:57:32;;;;;;;8.60;4.15;;;10.40;99.90;;;;;;10033203;28;20014;-65
2022/11/25 19:02:23;;;;;;;9.30;4.20;;;10.50;99.90;;;;;;10034426;28;20613;-68
2022/11/25 19:07:13;;;;;;;10.73;5.20;;;10.60;99.90;;;;;;10042990;28;20388;-65
2022/11/25 19:12:05;;;;;;;12.20;4.72;;;10.40;99.90;;;;;;10047055;28;20029;-65
2022/11/25 19:17:00;;;;;;;9.73;5.95;;;10.30;99.90;;;;;;10039644;28;20109;-63
2022/11/25 19:21:51;;;;;;;11.33;5.80;;;10.30;99.90;;;;;;10045522;28;20029;-67
2022/11/25 19:26:50;;;;;;;11.15;5.55;;;10.30;99.90;;;;;;10040737;28;20304;-71
2022/11/25 19:31:41;;;;;;;7.72;4.60;;;10.20;99.90;;;;;;10036092;28;20464;-69
2022/11/25 19:36:33;;;;;;;10.32;5.60;;;10.20;99.90;;;;;;10040237;28;20037;-69
2022/11/25 19:41:24;;;;;;;11.55;6.03;;;10.00;99.90;;;;;;10045817;28;20112;-73
2022/11/25 19:46:26;;;;;;;11.10;5.00;;;10.00;99.90;;;;;;10044350;28;20141;-70
2022/11/25 19:51:17;;;;;;;7.15;3.55;;;9.90;99.90;;;;;;10045783;28;20033;-71
2022/11/25 19:56:15;;;;;;;10.23;4.82;;;10.00;99.90;;;;;;10044560;28;20391;-72
2022/11/25 20:01:12;;;;;;;9.40;4.00;;;9.90;99.90;;;;;;10045497;28;20550;-67
2022/11/25 20:06:04;;;;;;;9.77;3.90;;;10.00;99.90;;;;;;10035723;28;20065;-73
2022/11/25 20:10:56;;;;;;;14.63;5.93;;;10.10;99.90;;;;;;10038012;28;20022;-71
2022/11/25 20:15:46;;;;;;;8.20;4.35;;;10.10;99.90;;;;;;10036244;28;20022;-71
2022/11/25 20:20:40;;;;;;;6.28;4.03;;;10.10;99.90;;;;;;10038913;28;20037;-71
2022/11/25 20:25:40;;;;;;;7.32;3.63;;;10.10;99.90;;;;;;10041066;28;20041;-68
2022/11/25 20:30:31;;;;;;;8.80;4.32;;;10.10;99.90;;;;;;10027876;28;20037;-71
2022/11/25 20:35:24;;;;;;;8.43;4.32;;;10.10;99.90;;;;;;10033438;28;20116;-73
2022/11/25 20:40:21;;;;;;;9.65;3.78;;;10.10;99.90;;;;;;10038397;28;20411;-72
2022/11/25 20:45:17;;;;;;;12.10;3.67;;;10.10;99.90;;;;;;10035096;28;20054;-71
2022/11/25 20:50:09;;;;;;;6.10;3.25;;;10.10;99.90;;;;;;10030672;28;20023;-72
2022/11/25 20:55:05;;;;;;;9.10;3.72;;;10.10;99.90;;;;;;10041401;28;20030;-74
2022/11/25 20:59:55;;;;;;;9.55;3.55;;;10.10;99.90;;;;;;10027801;28;20033;-73
2022/11/25 21:04:46;;;;;;;7.72;3.70;;;10.10;99.90;;;;;;10023001;28;20046;-74
2022/11/25 21:09:36;;;;;;;11.02;3.63;;;10.10;99.90;;;;;;10029798;28;20042;-70
2022/11/25 21:14:28;;;;;;;12.10;3.65;;;10.00;99.90;;;;;;10017098;28;20030;-72
2022/11/25 21:19:19;;;;;;;9.23;4.50;;;9.90;99.90;;;;;;10035636;28;20037;-72
2022/11/25 21:24:31;;;;;;;6.50;4.05;;;9.80;99.90;;;;;;10037045;28;20031;-75
2022/11/25 21:29:22;;;;;;;11.65;4.35;;;9.70;99.90;;;;;;10036164;28;20025;-69
2022/11/25 21:34:13;;;;;;;10.98;4.50;;;9.70;99.90;;;;;;10037186;28;20049;-71
2022/11/25 21:39:23;;;;;;;5.72;3.83;;;9.70;99.90;;;;;;10037179;28;20190;-73
2022/11/25 21:44:41;;;;;;;5.97;4.00;;;9.70;99.90;;;;;;10039336;28;20088;-75
2022/11/25 21:49:31;;;;;;;8.93;3.80;;;9.80;99.90;;;;;;10037482;28;20073;-75
2022/11/25 21:54:22;;;;;;;7.78;4.10;;;9.80;99.90;;;;;;10035932;28;20495;-72
2022/11/25 21:59:18;;;;;;;7.70;4.65;;;9.90;99.90;;;;;;10026119;28;20393;-69
2022/11/25 22:04:18;;;;;;;10.75;4.65;;;9.90;99.90;;;;;;10034992;28;20485;-67
2022/11/25 22:09:09;;;;;;;8.38;3.85;;;9.70;99.90;;;;;;10031360;28;20073;-64
2022/11/25 22:14:04;;;;;;;8.57;3.80;;;9.60;99.90;;;;;;10024948;28;20407;-66
2022/11/25 22:18:55;;;;;;;5.85;3.50;;;9.60;99.90;;;;;;10037765;28;20029;-75
2022/11/25 22:23:46;;;;;;;7.70;3.85;;;9.50;99.90;;;;;;10039086;28;20093;-68
2022/11/25 22:28:36;;;;;;;7.45;3.10;;;9.40;99.90;;;;;;10032317;28;20940;-69
2022/11/25 22:33:33;;;;;;;6.50;4.30;;;9.40;99.90;;;;;;10028166;28;20021;-65
2022/11/25 22:38:23;;;;;;;7.97;3.45;;;9.40;99.90;;;;;;10034872;28;20057;-72
2022/11/25 22:43:17;;;;;;;9.55;4.68;;;9.30;99.90;;;;;;10031944;28;20531;-69
2022/11/25 22:48:17;;;;;;;9.63;5.47;;;9.40;99.90;;;;;;10030693;28;20044;-66
2022/11/25 22:53:17;;;;;;;8.65;3.47;;;9.40;99.90;;;;;;10033612;28;20419;-73
2022/11/25 22:58:09;;;;;;;10.07;5.20;;;9.40;99.90;;;;;;10034447;28;20195;-68
2022/11/25 23:03:04;;;;;;;6.25;3.50;;;9.30;99.90;;;;;;10040692;28;20013;-70
2022/11/25 23:07:54;;;;;;;5.70;3.50;;;9.10;99.90;;;;;;10031898;28;20407;-69
2022/11/25 23:12:45;;;;;;;8.27;3.20;;;9.10;99.90;;;;;;10039969;28;20018;-68
2022/11/25 23:17:36;;;;;;;7.95;3.47;;;9.10;99.90;;;;;;10032489;28;20060;-65
2022/11/25 23:22:27;;;;;;;8.02;3.45;;;9.10;99.90;;;;;;10040949;28;20037;-74
2022/11/25 23:27:17;;;;;;;8.68;3.65;;;9.10;99.90;;;;;;10037407;28;20116;-70
2022/11/25 23:32:17;;;;;;;10.45;5.38;;;9.10;99.90;;;;;;10039550;28;20052;-68
2022/11/25 23:37:11;;;;;;;12.15;6.05;;;9.10;99.90;;;;;;10036559;28;20026;-71
2022/11/25 23:42:02;;;;;;;7.50;3.97;;;9.10;99.90;;;;;;10041790;28;20029;-67
2022/11/25 23:47:03;;;;;;;8.55;3.95;;;9.00;99.90;;;;;;10040775;28;20566;-74
2022/11/25 23:51:56;;;;;;;10.10;4.72;;;9.10;99.90;;;;;;10028537;28;20031;-73
2022/11/25 23:56:46;;;;;;;8.90;4.25;;;9.10;99.90;;;;;;10030507;28;20060;-70
